createdAt,value
2018-11-05T00:01:38.895Z,9.50
2018-11-05T00:04:07.183Z,9.50
2018-11-05T00:06:35.484Z,9.40
2018-11-05T00:09:04.948Z,9.50
2018-11-05T00:11:33.276Z,9.50
2018-11-05T00:14:01.591Z,9.50
2018-11-05T00:16:29.896Z,9.50
2018-11-05T00:18:59.333Z,9.50
2018-11-05T00:21:27.635Z,9.40
2018-11-05T00:23:55.942Z,9.50
2018-11-05T00:26:24.259Z,9.50
2018-11-05T00:28:52.601Z,9.50
2018-11-05T00:31:20.896Z,9.50
2018-11-05T00:33:49.199Z,9.50
2018-11-05T00:36:17.532Z,9.50
2018-11-05T00:38:45.855Z,9.50
2018-11-05T00:41:14.136Z,9.50
2018-11-05T00:43:42.463Z,9.50
2018-11-05T00:46:10.776Z,9.50
2018-11-05T00:48:39.088Z,9.50
2018-11-05T00:51:07.396Z,9.40
2018-11-05T00:53:35.701Z,9.50
2018-11-05T00:56:04.018Z,9.50
2018-11-05T00:58:32.405Z,9.50
2018-11-05T01:01:00.706Z,9.50
2018-11-05T01:03:29.041Z,9.50
2018-11-05T01:05:57.377Z,9.40
2018-11-05T01:08:25.708Z,9.50
2018-11-05T01:10:54.140Z,9.50
2018-11-05T01:13:22.433Z,9.50
2018-11-05T01:15:50.752Z,9.50
2018-11-05T01:18:19.647Z,9.50
2018-11-05T01:20:47.944Z,9.50
2018-11-05T01:23:16.260Z,9.50
2018-11-05T01:25:44.593Z,9.50
2018-11-05T01:28:12.912Z,9.50
2018-11-05T01:30:41.208Z,9.50
2018-11-05T01:33:09.511Z,9.50
2018-11-05T01:35:37.816Z,9.50
2018-11-05T01:38:06.143Z,9.50
2018-11-05T01:40:34.444Z,9.50
2018-11-05T01:43:02.734Z,9.50
2018-11-05T01:45:31.041Z,9.50
2018-11-05T01:47:59.344Z,9.50
2018-11-05T01:50:27.748Z,9.50
2018-11-05T01:52:57.136Z,9.60
2018-11-05T01:55:25.479Z,9.50
2018-11-05T01:57:53.796Z,9.60
2018-11-05T02:00:22.129Z,9.60
2018-11-05T02:02:50.447Z,9.50
2018-11-05T02:05:18.731Z,9.60
2018-11-05T02:07:47.191Z,9.60
2018-11-05T02:10:16.703Z,9.60
2018-11-05T02:12:44.977Z,9.50
2018-11-05T02:15:13.483Z,9.50
2018-11-05T02:17:43.081Z,9.50
2018-11-05T02:20:17.450Z,9.50
2018-11-05T02:22:45.853Z,9.50
2018-11-05T02:25:14.556Z,9.60
2018-11-05T02:27:42.984Z,9.50
2018-11-05T02:30:13.694Z,9.60
2018-11-05T02:32:43.071Z,9.60
2018-11-05T02:35:12.536Z,9.50
2018-11-05T02:37:41.574Z,9.60
2018-11-05T02:40:12.733Z,9.60
2018-11-05T02:42:41.815Z,9.60
2018-11-05T02:45:11.612Z,9.60
2018-11-05T02:47:40.141Z,9.60
2018-11-05T02:50:09.765Z,9.60
2018-11-05T02:52:38.812Z,9.60
2018-11-05T02:55:07.267Z,9.60
2018-11-05T02:57:35.696Z,9.60
2018-11-05T03:00:05.749Z,9.60
2018-11-05T03:02:35.148Z,9.60
2018-11-05T03:05:03.609Z,9.60
2018-11-05T03:07:31.918Z,9.60
2018-11-05T03:10:00.228Z,9.60
2018-11-05T03:12:28.564Z,9.60
2018-11-05T03:14:56.884Z,9.60
2018-11-05T03:17:25.172Z,9.60
2018-11-05T03:19:53.463Z,9.70
2018-11-05T03:22:21.759Z,9.70
2018-11-05T03:24:50.060Z,9.70
2018-11-05T03:27:18.488Z,9.70
2018-11-05T03:29:46.767Z,9.70
2018-11-05T03:32:15.064Z,9.60
2018-11-05T03:34:43.376Z,9.60
2018-11-05T03:37:11.687Z,9.70
2018-11-05T03:39:43.980Z,9.60
2018-11-05T03:42:12.259Z,9.70
2018-11-05T03:44:40.552Z,9.70
2018-11-05T03:47:08.860Z,9.70
2018-11-05T03:49:37.155Z,9.70
2018-11-05T03:52:05.589Z,9.70
2018-11-05T03:54:33.880Z,9.70
2018-11-05T03:57:02.167Z,9.70
2018-11-05T03:59:30.429Z,9.70
2018-11-05T04:01:58.717Z,9.70
2018-11-05T04:04:26.992Z,9.70
2018-11-05T04:06:55.295Z,9.70
2018-11-05T04:09:23.579Z,9.70
2018-11-05T04:11:51.899Z,9.70
2018-11-05T04:14:20.204Z,9.70
2018-11-05T04:16:48.521Z,9.70
2018-11-05T04:19:16.833Z,9.70
2018-11-05T04:21:45.636Z,9.70
2018-11-05T04:24:15.002Z,9.70
2018-11-05T04:26:44.401Z,9.70
2018-11-05T04:29:12.698Z,9.70
2018-11-05T04:31:41.392Z,9.70
2018-11-05T04:34:10.780Z,9.70
2018-11-05T04:36:39.051Z,9.70
2018-11-05T04:39:11.739Z,9.70
2018-11-05T04:41:40.100Z,9.70
2018-11-05T04:44:08.708Z,9.70
2018-11-05T04:46:37.109Z,9.70
2018-11-05T04:49:05.503Z,9.70
2018-11-05T04:51:33.788Z,9.70
2018-11-05T04:54:02.132Z,9.70
2018-11-05T04:56:30.496Z,9.70
2018-11-05T04:58:58.779Z,9.70
2018-11-05T05:01:27.170Z,9.70
2018-11-05T05:03:55.484Z,9.70
2018-11-05T05:06:23.827Z,9.70
2018-11-05T05:08:52.111Z,9.70
2018-11-05T05:11:21.492Z,9.70
2018-11-05T05:13:49.810Z,9.70
2018-11-05T05:16:18.117Z,9.70
2018-11-05T05:18:46.395Z,9.70
2018-11-05T05:21:14.651Z,9.70
2018-11-05T05:23:42.951Z,9.70
2018-11-05T05:26:11.250Z,9.70
2018-11-05T05:28:39.521Z,9.70
2018-11-05T05:31:07.879Z,9.70
2018-11-05T05:33:36.359Z,9.70
2018-11-05T05:36:05.002Z,9.70
2018-11-05T05:38:33.304Z,9.70
2018-11-05T05:41:01.619Z,9.70
2018-11-05T05:43:29.983Z,9.70
2018-11-05T05:45:58.271Z,9.70
2018-11-05T05:48:28.738Z,9.70
2018-11-05T05:50:57.100Z,9.70
2018-11-05T05:53:25.367Z,9.80
2018-11-05T05:55:53.673Z,9.80
2018-11-05T05:58:21.951Z,9.70
2018-11-05T06:00:50.315Z,9.80
2018-11-05T06:03:18.789Z,9.70
2018-11-05T06:05:47.227Z,9.80
2018-11-05T06:08:15.471Z,9.80
2018-11-05T06:10:47.743Z,9.80
2018-11-05T06:13:16.024Z,9.70
2018-11-05T06:15:47.431Z,9.80
2018-11-05T06:18:15.712Z,9.80
2018-11-05T06:20:44.117Z,9.80
2018-11-05T06:23:12.440Z,9.80
2018-11-05T06:25:40.867Z,9.80
2018-11-05T06:28:09.151Z,9.80
2018-11-05T06:30:38.432Z,9.80
2018-11-05T06:33:06.759Z,9.80
2018-11-05T06:35:35.068Z,9.80
2018-11-05T06:38:03.364Z,9.80
2018-11-05T06:40:31.671Z,9.80
2018-11-05T06:42:59.952Z,9.90
2018-11-05T06:45:28.332Z,9.80
2018-11-05T06:47:56.536Z,9.90
2018-11-05T06:50:25.746Z,9.80
2018-11-05T06:52:54.126Z,9.90
2018-11-05T06:55:22.368Z,9.90
2018-11-05T06:57:50.996Z,9.90
2018-11-05T07:00:21.600Z,9.90
2018-11-05T07:02:49.966Z,9.90
2018-11-05T07:05:18.581Z,9.90
2018-11-05T07:07:47.232Z,9.90
2018-11-05T07:10:16.329Z,9.90
2018-11-05T07:12:45.027Z,9.90
2018-11-05T07:15:14.786Z,10.00
2018-11-05T07:17:49.831Z,10.00
2018-11-05T07:20:19.382Z,10.00
2018-11-05T07:22:48.527Z,10.00
2018-11-05T07:25:17.019Z,10.00
2018-11-05T07:27:45.662Z,10.00
2018-11-05T07:30:20.124Z,10.00
2018-11-05T07:32:49.246Z,10.00
2018-11-05T07:35:17.571Z,10.10
2018-11-05T07:37:45.890Z,10.10
2018-11-05T07:40:15.399Z,10.10
2018-11-05T07:42:43.948Z,10.10
2018-11-05T07:45:23.622Z,10.10
2018-11-05T07:47:51.983Z,10.10
2018-11-05T07:50:21.264Z,10.20
2018-11-05T07:52:49.821Z,10.20
2018-11-05T07:55:18.889Z,10.20
2018-11-05T07:57:48.388Z,10.20
2018-11-05T08:00:22.065Z,10.30
2018-11-05T08:02:51.935Z,10.20
2018-11-05T08:05:21.165Z,10.30
2018-11-05T08:07:49.758Z,10.30
2018-11-05T08:10:18.051Z,10.30
2018-11-05T08:12:46.467Z,10.30
2018-11-05T08:15:18.891Z,10.40
2018-11-05T08:17:48.259Z,10.40
2018-11-05T08:20:16.561Z,10.40
2018-11-05T08:22:44.872Z,10.40
2018-11-05T08:25:13.991Z,10.40
2018-11-05T08:27:42.307Z,10.50
2018-11-05T08:30:17.799Z,10.50
2018-11-05T08:32:46.127Z,10.50
2018-11-05T08:35:14.804Z,10.50
2018-11-05T08:37:43.964Z,10.60
2018-11-05T08:40:15.435Z,10.60
2018-11-05T08:42:44.282Z,10.60
2018-11-05T08:45:13.603Z,10.60
2018-11-05T08:47:42.112Z,10.60
2018-11-05T08:50:12.472Z,10.70
2018-11-05T08:52:40.780Z,10.70
2018-11-05T08:55:11.418Z,10.70
2018-11-05T08:57:40.239Z,10.70
2018-11-05T09:00:20.227Z,10.80
2018-11-05T09:02:48.910Z,10.80
2018-11-05T09:05:17.284Z,10.80
2018-11-05T09:07:46.311Z,10.80
2018-11-05T09:10:14.765Z,10.80
2018-11-05T09:12:43.328Z,10.80
2018-11-05T09:15:13.092Z,10.90
2018-11-05T09:17:42.247Z,10.90
2018-11-05T09:20:11.839Z,10.90
2018-11-05T09:22:40.140Z,11.00
2018-11-05T09:25:09.628Z,11.00
2018-11-05T09:27:37.979Z,11.00
2018-11-05T09:30:08.642Z,11.00
2018-11-05T09:32:36.917Z,11.10
2018-11-05T09:35:06.048Z,11.10
2018-11-05T09:37:34.347Z,11.10
2018-11-05T09:40:02.698Z,11.20
2018-11-05T09:42:31.055Z,11.20
2018-11-05T09:44:59.338Z,11.20
2018-11-05T09:47:27.611Z,11.20
2018-11-05T09:49:55.946Z,11.20
2018-11-05T09:52:24.220Z,11.30
2018-11-05T09:54:52.539Z,11.30
2018-11-05T09:57:20.899Z,11.30
2018-11-05T09:59:49.123Z,11.40
2018-11-05T10:02:17.436Z,11.40
2018-11-05T10:04:46.115Z,11.40
2018-11-05T10:07:14.058Z,11.40
2018-11-05T10:09:42.352Z,11.40
2018-11-05T10:12:10.704Z,11.50
2018-11-05T10:14:38.995Z,11.50
2018-11-05T10:17:07.599Z,11.50
2018-11-05T10:19:35.919Z,11.50
2018-11-05T10:22:04.232Z,11.50
2018-11-05T10:24:32.642Z,11.50
2018-11-05T10:27:00.852Z,11.60
2018-11-05T10:29:29.139Z,11.60
2018-11-05T10:31:57.459Z,11.60
2018-11-05T10:34:25.727Z,11.60
2018-11-05T10:36:54.062Z,11.60
2018-11-05T10:39:22.340Z,11.60
2018-11-05T10:41:50.663Z,11.60
2018-11-05T10:44:18.996Z,11.70
2018-11-05T10:46:47.239Z,11.70
2018-11-05T10:49:15.583Z,11.70
2018-11-05T10:51:44.230Z,11.70
2018-11-05T10:54:12.536Z,11.70
2018-11-05T10:56:40.872Z,11.70
2018-11-05T10:59:09.234Z,11.70
2018-11-05T11:01:42.836Z,11.70
2018-11-05T11:04:16.528Z,11.70
2018-11-05T11:06:44.835Z,11.70
2018-11-05T11:09:13.151Z,11.70
2018-11-05T11:11:41.540Z,11.60
2018-11-05T11:14:09.845Z,11.70
2018-11-05T11:16:38.227Z,11.60
2018-11-05T11:19:06.591Z,11.60
2018-11-05T11:21:34.891Z,11.60
2018-11-05T11:24:03.175Z,11.60
2018-11-05T11:26:31.485Z,11.60
2018-11-05T11:28:59.897Z,11.70
2018-11-05T11:31:28.128Z,11.70
2018-11-05T11:33:56.451Z,11.70
2018-11-05T11:36:24.832Z,11.70
2018-11-05T11:38:53.048Z,11.80
2018-11-05T11:41:21.371Z,11.80
2018-11-05T11:43:49.663Z,11.80
2018-11-05T11:46:18.071Z,11.80
2018-11-05T11:48:46.408Z,11.80
2018-11-05T11:51:14.684Z,11.80
2018-11-05T11:53:43.008Z,11.80
2018-11-05T11:56:11.382Z,11.80
2018-11-05T11:58:39.856Z,11.80
2018-11-05T12:01:08.164Z,11.70
2018-11-05T12:03:36.489Z,11.70
2018-11-05T12:06:05.241Z,11.80
2018-11-05T12:08:33.508Z,11.80
2018-11-05T12:11:01.803Z,11.80
2018-11-05T12:13:30.135Z,11.80
2018-11-05T12:15:58.435Z,11.70
2018-11-05T12:18:26.784Z,11.80
2018-11-05T12:20:55.079Z,11.70
2018-11-05T12:23:23.444Z,11.80
2018-11-05T12:25:51.935Z,11.80
2018-11-05T12:28:20.283Z,11.80
2018-11-05T12:30:48.627Z,11.80
2018-11-05T12:33:16.984Z,11.80
2018-11-05T12:35:45.264Z,11.80
2018-11-05T12:38:13.612Z,11.80
2018-11-05T12:40:41.959Z,11.80
2018-11-05T12:43:10.396Z,11.80
2018-11-05T12:45:40.877Z,11.80
2018-11-05T12:48:10.151Z,11.90
2018-11-05T12:50:38.513Z,11.80
2018-11-05T12:53:09.071Z,11.90
2018-11-05T12:55:38.895Z,11.90
2018-11-05T12:58:07.216Z,11.90
2018-11-05T13:00:39.321Z,11.90
2018-11-05T13:03:13.155Z,11.90
2018-11-05T13:05:42.617Z,11.90
2018-11-05T13:08:11.952Z,11.90
2018-11-05T13:10:42.068Z,11.90
2018-11-05T13:13:10.412Z,11.90
2018-11-05T13:15:41.618Z,11.80
2018-11-05T13:18:12.936Z,11.80
2018-11-05T13:20:42.572Z,11.80
2018-11-05T13:23:10.948Z,11.80
2018-11-05T13:25:39.910Z,11.90
2018-11-05T13:28:08.340Z,11.90
2018-11-05T13:30:36.623Z,11.90
2018-11-05T13:33:05.035Z,11.90
2018-11-05T13:35:33.349Z,11.80
2018-11-05T13:38:02.329Z,11.90
2018-11-05T13:40:30.157Z,11.80
2018-11-05T13:42:58.454Z,11.80
2018-11-05T13:45:27.015Z,11.80
2018-11-05T13:47:55.758Z,11.80
2018-11-05T13:50:23.647Z,11.80
2018-11-05T13:52:51.739Z,11.80
2018-11-05T13:55:20.061Z,11.80
2018-11-05T13:57:48.833Z,11.80
2018-11-05T14:00:18.396Z,11.80
2018-11-05T14:02:46.889Z,11.80
2018-11-05T14:05:15.271Z,11.80
2018-11-05T14:07:43.600Z,11.80
2018-11-05T14:10:15.491Z,11.80
2018-11-05T14:12:44.929Z,11.80
2018-11-05T14:15:13.149Z,11.80
2018-11-05T14:17:42.257Z,11.80
2018-11-05T14:20:11.689Z,11.80
2018-11-05T14:22:40.051Z,11.80
2018-11-05T14:25:10.472Z,11.80
2018-11-05T14:27:39.060Z,11.80
2018-11-05T14:30:08.727Z,11.80
2018-11-05T14:32:36.924Z,11.70
2018-11-05T14:35:05.284Z,11.80
2018-11-05T14:37:33.580Z,11.70
2018-11-05T14:40:01.912Z,11.70
2018-11-05T14:42:30.195Z,11.70
2018-11-05T14:44:58.504Z,11.70
2018-11-05T14:47:26.795Z,11.70
2018-11-05T14:49:55.135Z,11.70
2018-11-05T14:52:23.444Z,11.70
2018-11-05T14:54:51.778Z,11.70
2018-11-05T14:57:20.171Z,11.70
2018-11-05T14:59:48.383Z,11.70
2018-11-05T15:02:21.999Z,11.70
2018-11-05T15:04:50.272Z,11.70
2018-11-05T15:07:21.764Z,11.70
2018-11-05T15:09:50.031Z,11.70
2018-11-05T15:12:18.359Z,11.60
2018-11-05T15:14:46.647Z,11.60
2018-11-05T15:17:14.958Z,11.60
2018-11-05T15:19:43.737Z,11.60
2018-11-05T15:22:11.572Z,11.60
2018-11-05T15:24:39.885Z,11.60
2018-11-05T15:27:08.207Z,11.50
2018-11-05T15:29:36.451Z,11.50
2018-11-05T15:32:05.371Z,11.50
2018-11-05T15:34:33.636Z,11.50
2018-11-05T15:37:01.920Z,11.50
2018-11-05T15:39:30.231Z,11.50
2018-11-05T15:41:58.507Z,11.50
2018-11-05T15:44:26.834Z,11.50
2018-11-05T15:46:55.131Z,11.50
2018-11-05T15:49:23.423Z,11.50
2018-11-05T15:51:52.097Z,11.50
2018-11-05T15:54:20.201Z,11.40
2018-11-05T15:56:48.414Z,11.50
2018-11-05T15:59:16.705Z,11.50
2018-11-05T16:01:44.991Z,11.40
2018-11-05T16:04:13.324Z,11.40
2018-11-05T16:06:41.582Z,11.40
2018-11-05T16:09:10.052Z,11.40
2018-11-05T16:11:38.359Z,11.40
2018-11-05T16:14:06.835Z,11.40
2018-11-05T16:16:35.243Z,11.40
2018-11-05T16:19:03.573Z,11.40
2018-11-05T16:21:31.979Z,11.40
2018-11-05T16:24:00.280Z,11.40
2018-11-05T16:26:28.583Z,11.30
2018-11-05T16:28:56.898Z,11.30
2018-11-05T16:31:25.186Z,11.30
2018-11-05T16:33:53.510Z,11.30
2018-11-05T16:36:21.804Z,11.30
2018-11-05T16:38:50.127Z,11.30
2018-11-05T16:41:18.442Z,11.30
2018-11-05T16:43:47.586Z,11.30
2018-11-05T16:46:15.883Z,11.30
2018-11-05T16:48:44.367Z,11.30
2018-11-05T16:51:12.686Z,11.30
2018-11-05T16:53:40.982Z,11.30
2018-11-05T16:56:09.307Z,11.30
2018-11-05T16:58:43.297Z,11.30
2018-11-05T17:01:12.087Z,11.30
2018-11-05T17:03:40.355Z,11.30
2018-11-05T17:06:08.804Z,11.30
2018-11-05T17:08:37.075Z,11.30
2018-11-05T17:11:06.911Z,11.20
2018-11-05T17:13:35.347Z,11.30
2018-11-05T17:16:03.560Z,11.20
2018-11-05T17:18:31.857Z,11.20
2018-11-05T17:21:00.155Z,11.30
2018-11-05T17:23:28.500Z,11.20
2018-11-05T17:25:56.851Z,11.20
2018-11-05T17:28:25.177Z,11.30
2018-11-05T17:30:53.533Z,11.20
2018-11-05T17:33:22.467Z,11.20
2018-11-05T17:35:50.784Z,11.20
2018-11-05T17:38:19.059Z,11.20
2018-11-05T17:40:47.376Z,11.20
2018-11-05T17:43:15.668Z,11.20
2018-11-05T17:45:43.979Z,11.20
2018-11-05T17:48:12.251Z,11.20
2018-11-05T17:50:40.609Z,11.20
2018-11-05T17:53:08.893Z,11.20
2018-11-05T17:55:37.203Z,11.20
2018-11-05T17:58:05.623Z,11.20
2018-11-05T18:00:33.903Z,11.20
2018-11-05T18:03:03.647Z,11.20
2018-11-05T18:05:31.948Z,11.20
2018-11-05T18:08:00.247Z,11.20
2018-11-05T18:10:28.512Z,11.20
2018-11-05T18:12:56.807Z,11.20
2018-11-05T18:15:25.141Z,11.10
2018-11-05T18:17:53.399Z,11.10
2018-11-05T18:20:21.744Z,11.10
2018-11-05T18:22:50.055Z,11.10
2018-11-05T18:25:19.412Z,11.00
2018-11-05T18:27:47.855Z,11.00
2018-11-05T18:30:16.873Z,10.90
2018-11-05T18:32:45.183Z,10.90
2018-11-05T18:35:14.352Z,10.80
2018-11-05T18:37:47.957Z,10.80
2018-11-05T18:40:16.434Z,10.70
2018-11-05T18:42:45.025Z,10.70
2018-11-05T18:45:13.480Z,10.60
2018-11-05T18:47:41.892Z,10.50
2018-11-05T18:50:12.015Z,10.50
2018-11-05T18:52:40.419Z,10.40
2018-11-05T18:55:10.295Z,10.40
2018-11-05T18:57:38.896Z,10.30
2018-11-05T19:00:20.185Z,10.20
2018-11-05T19:02:49.278Z,10.20
2018-11-05T19:05:18.962Z,10.10
2018-11-05T19:07:47.564Z,10.10
2018-11-05T19:10:15.864Z,10.00
2018-11-05T19:12:44.170Z,10.00
2018-11-05T19:15:13.776Z,9.90
2018-11-05T19:17:42.628Z,9.90
2018-11-05T19:20:10.996Z,9.90
2018-11-05T19:22:40.180Z,9.80
2018-11-05T19:25:09.687Z,9.80
2018-11-05T19:27:39.543Z,9.70
2018-11-05T19:30:11.206Z,9.70
2018-11-05T19:32:39.507Z,9.70
2018-11-05T19:35:12.249Z,9.70
2018-11-05T19:37:42.196Z,9.60
2018-11-05T19:40:11.743Z,9.60
2018-11-05T19:42:41.227Z,9.60
2018-11-05T19:45:13.536Z,9.50
2018-11-05T19:47:41.918Z,9.50
2018-11-05T19:50:13.383Z,9.50
2018-11-05T19:52:42.689Z,9.50
2018-11-05T19:55:12.601Z,9.50
2018-11-05T19:57:41.839Z,9.50
2018-11-05T20:00:18.254Z,9.50
2018-11-05T20:02:47.083Z,9.40
2018-11-05T20:05:15.842Z,9.40
2018-11-05T20:07:44.555Z,9.40
2018-11-05T20:10:13.216Z,9.40
2018-11-05T20:12:42.305Z,9.30
2018-11-05T20:15:11.820Z,9.30
2018-11-05T20:17:41.139Z,9.30
2018-11-05T20:20:11.052Z,9.20
2018-11-05T20:22:39.467Z,9.20
2018-11-05T20:25:09.851Z,9.20
2018-11-05T20:27:38.789Z,9.20
2018-11-05T20:30:11.063Z,9.10
2018-11-05T20:32:39.875Z,9.10
2018-11-05T20:35:08.261Z,9.00
2018-11-05T20:37:36.611Z,9.00
2018-11-05T20:40:05.718Z,9.00
2018-11-05T20:42:33.956Z,8.90
2018-11-05T20:45:02.319Z,8.90
2018-11-05T20:47:30.624Z,8.90
2018-11-05T20:49:58.896Z,8.80
2018-11-05T20:52:27.195Z,8.80
2018-11-05T20:54:55.515Z,8.80
2018-11-05T20:57:23.890Z,8.70
2018-11-05T20:59:52.211Z,8.70
2018-11-05T21:02:20.528Z,8.70
2018-11-05T21:04:48.787Z,8.60
2018-11-05T21:07:17.075Z,8.70
2018-11-05T21:09:45.464Z,8.60
2018-11-05T21:12:13.759Z,8.60
2018-11-05T21:14:42.104Z,8.60
2018-11-05T21:17:10.546Z,8.60
2018-11-05T21:19:40.121Z,8.50
2018-11-05T21:22:11.217Z,8.50
2018-11-05T21:24:39.388Z,8.50
2018-11-05T21:27:23.482Z,8.40
2018-11-05T21:29:53.374Z,8.40
2018-11-05T21:32:21.675Z,8.40
2018-11-05T21:34:50.303Z,8.30
2018-11-05T21:37:18.994Z,8.30
2018-11-05T21:39:47.296Z,8.20
2018-11-05T21:42:15.580Z,8.20
2018-11-05T21:44:43.859Z,8.20
2018-11-05T21:47:12.175Z,8.10
2018-11-05T21:49:40.398Z,8.10
2018-11-05T21:52:08.727Z,8.10
2018-11-05T21:54:37.245Z,8.10
2018-11-05T21:57:05.562Z,8.00
2018-11-05T21:59:33.825Z,8.00
2018-11-05T22:02:02.128Z,8.00
2018-11-05T22:04:30.411Z,7.90
2018-11-05T22:06:58.703Z,7.90
2018-11-05T22:09:26.974Z,7.90
2018-11-05T22:11:55.303Z,7.90
2018-11-05T22:14:23.600Z,7.90
2018-11-05T22:16:51.967Z,7.80
2018-11-05T22:19:20.240Z,7.80
2018-11-05T22:21:48.515Z,7.80
2018-11-05T22:24:16.832Z,7.80
2018-11-05T22:26:45.126Z,7.70
2018-11-05T22:29:13.423Z,7.70
2018-11-05T22:31:41.705Z,7.70
2018-11-05T22:34:10.074Z,7.60
2018-11-05T22:36:38.368Z,7.60
2018-11-05T22:39:07.795Z,7.60
2018-11-05T22:41:36.171Z,7.60
2018-11-05T22:44:04.453Z,7.60
2018-11-05T22:46:32.754Z,7.60
2018-11-05T22:49:01.046Z,7.50
2018-11-05T22:51:29.518Z,7.50
2018-11-05T22:53:57.811Z,7.50
2018-11-05T22:56:26.082Z,7.50
2018-11-05T22:58:54.367Z,7.50
2018-11-05T23:01:28.013Z,7.40
2018-11-05T23:03:56.322Z,7.40
2018-11-05T23:06:24.596Z,7.40
2018-11-05T23:08:52.908Z,7.40
2018-11-05T23:11:21.336Z,7.40
2018-11-05T23:13:49.628Z,7.30
2018-11-05T23:16:17.944Z,7.30
2018-11-05T23:18:46.264Z,7.30
2018-11-05T23:21:14.725Z,7.30
2018-11-05T23:23:43.020Z,7.30
2018-11-05T23:26:11.414Z,7.30
2018-11-05T23:28:39.683Z,7.30
2018-11-05T23:31:08.019Z,7.30
2018-11-05T23:33:36.308Z,7.30
2018-11-05T23:36:04.691Z,7.30
2018-11-05T23:38:33.009Z,7.30
2018-11-05T23:41:01.384Z,7.30
2018-11-05T23:43:29.553Z,7.20
2018-11-05T23:45:57.860Z,7.20
2018-11-05T23:48:26.147Z,7.20
2018-11-05T23:50:54.487Z,7.20
2018-11-05T23:53:22.828Z,7.20
2018-11-05T23:55:54.500Z,7.20
2018-11-05T23:58:22.817Z,7.20
